Terminal Aerodrome Forecast
Issued by NWS Detroit/Pontiac, MI

Home | Current Version | Previous Version | Text Only | Print | Product List | Glossary On
Versions: 1 2 3 4 5 6 7 8 9 10 11 12 13 14 15 16 17 18 19 20 21 22 23 24
000
FTUS43 KDTX 301444 AAA
TAFDTW
TAF AMD
KDTW 301444Z 3015/3118 27014G22KT P6SM SKC
     FM301700 30020G30KT P6SM SCT050
     FM302300 36005KT P6SM BKN200
     FM310400 12007KT 4SM -RA BR OVC020
     FM310900 05010KT 2SM -DZ BR OVC008
     FM311400 36013G20KT P6SM BKN025 OVC040=

USA.gov is the U.S. government's official web portal to all federal, state and local government web resources and services.